createdAt,value
2023-03-06T00:01:19.274Z,23.27
2023-03-06T00:03:48.065Z,26.07
2023-03-06T00:06:16.753Z,25.37
2023-03-06T00:08:45.436Z,19.40
2023-03-06T00:11:15.438Z,24.10
2023-03-06T00:13:44.045Z,23.90
2023-03-06T00:16:14.015Z,32.07
2023-03-06T00:18:44.034Z,23.03
2023-03-06T00:21:12.712Z,24.90
2023-03-06T00:23:41.852Z,20.17
2023-03-06T00:26:10.693Z,23.50
2023-03-06T00:28:39.412Z,24.90
2023-03-06T00:31:08.085Z,22.63
2023-03-06T00:33:38.090Z,29.20
2023-03-06T00:36:07.382Z,26.40
2023-03-06T00:38:37.137Z,23.63
2023-03-06T00:41:09.976Z,27.70
2023-03-06T00:43:38.624Z,24.30
2023-03-06T00:46:07.632Z,23.27
2023-03-06T00:48:36.435Z,23.47
2023-03-06T00:51:07.032Z,24.73
2023-03-06T00:53:35.685Z,27.50
2023-03-06T00:56:04.277Z,22.83
2023-03-06T00:58:32.912Z,26.50
2023-03-06T01:01:01.552Z,20.90
2023-03-06T01:03:30.172Z,24.23
2023-03-06T01:05:59.274Z,23.27
2023-03-06T01:08:29.272Z,25.40
2023-03-06T01:10:57.889Z,19.97
2023-03-06T01:13:26.490Z,23.90
2023-03-06T01:15:55.108Z,26.17
2023-03-06T01:18:23.931Z,24.70
2023-03-06T01:20:52.550Z,25.30
2023-03-06T01:23:21.154Z,25.87
2023-03-06T01:25:51.091Z,25.33
2023-03-06T01:28:19.725Z,24.37
2023-03-06T01:30:48.440Z,22.20
2023-03-06T01:33:17.253Z,28.77
2023-03-06T01:35:45.990Z,27.27
2023-03-06T01:38:14.827Z,27.13
2023-03-06T01:40:43.415Z,24.60
2023-03-06T01:43:27.075Z,28.77
2023-03-06T01:46:27.525Z,23.93
2023-03-06T01:48:58.110Z,31.37
2023-03-06T01:51:29.683Z,24.90
2023-03-06T01:54:00.136Z,28.17
2023-03-06T01:56:29.886Z,30.07
2023-03-06T01:58:59.868Z,34.10
2023-03-06T02:01:28.805Z,25.80
2023-03-06T02:03:57.505Z,29.67
2023-03-06T02:06:26.311Z,24.70
2023-03-06T02:08:55.513Z,24.53
2023-03-06T02:11:25.284Z,25.23
2023-03-06T02:13:54.893Z,30.13
2023-03-06T02:16:26.902Z,24.40
2023-03-06T02:18:55.841Z,24.83
2023-03-06T02:21:26.606Z,29.10
2023-03-06T02:24:07.895Z,30.20
2023-03-06T02:26:38.996Z,26.03
2023-03-06T02:29:08.623Z,32.20
2023-03-06T02:31:37.453Z,31.67
2023-03-06T02:34:09.794Z,25.00
2023-03-06T02:36:42.925Z,27.60
2023-03-06T02:39:11.622Z,29.87
2023-03-06T02:41:41.899Z,23.27
2023-03-06T02:44:10.544Z,29.33
2023-03-06T02:46:39.167Z,28.53
2023-03-06T02:49:07.816Z,26.87
2023-03-06T02:51:36.411Z,23.20
2023-03-06T02:54:05.300Z,27.80
2023-03-06T02:56:33.939Z,28.83
2023-03-06T02:59:04.053Z,26.43
2023-03-06T03:01:32.849Z,24.53
2023-03-06T03:04:01.540Z,25.53
2023-03-06T03:06:30.204Z,22.40
2023-03-06T03:08:58.854Z,23.97
2023-03-06T03:11:27.520Z,27.80
2023-03-06T03:13:56.148Z,56.80
2023-03-06T03:16:26.067Z,25.17
2023-03-06T03:18:54.704Z,26.63
2023-03-06T03:21:23.257Z,22.03
2023-03-06T03:23:51.841Z,27.47
2023-03-06T03:26:21.794Z,26.00
2023-03-06T03:28:50.410Z,26.20
2023-03-06T03:31:19.102Z,27.60
2023-03-06T03:33:49.041Z,25.50
2023-03-06T03:36:17.621Z,26.23
2023-03-06T03:38:46.221Z,25.97
2023-03-06T03:41:14.861Z,28.90
2023-03-06T03:43:43.967Z,32.87
2023-03-06T03:46:12.618Z,27.13
2023-03-06T03:48:41.276Z,27.00
2023-03-06T03:51:12.775Z,30.17
2023-03-06T03:53:41.394Z,29.90
2023-03-06T03:56:10.092Z,24.90
2023-03-06T03:58:38.827Z,28.60
2023-03-06T04:01:07.776Z,31.10
2023-03-06T04:03:36.473Z,28.10
2023-03-06T04:06:05.236Z,24.67
2023-03-06T04:08:35.513Z,27.70
2023-03-06T04:11:04.260Z,25.87
2023-03-06T04:13:33.128Z,28.63
2023-03-06T04:16:01.787Z,27.00
2023-03-06T04:18:30.418Z,30.10
2023-03-06T04:20:59.061Z,27.30
2023-03-06T04:23:27.879Z,31.57
2023-03-06T04:25:57.905Z,32.40
2023-03-06T04:28:27.140Z,36.20
2023-03-06T04:30:55.711Z,27.60
2023-03-06T04:33:24.553Z,27.13
2023-03-06T04:35:53.240Z,24.60
2023-03-06T04:38:21.897Z,24.27
2023-03-06T04:40:50.589Z,25.20
2023-03-06T04:43:20.846Z,33.87
2023-03-06T04:45:49.501Z,28.50
2023-03-06T04:48:19.716Z,25.43
2023-03-06T04:50:48.452Z,29.10
2023-03-06T04:53:19.553Z,32.83
2023-03-06T04:55:48.383Z,28.07
2023-03-06T04:58:16.968Z,28.40
2023-03-06T05:00:47.022Z,24.83
2023-03-06T05:03:15.727Z,33.43
2023-03-06T05:05:44.477Z,29.20
2023-03-06T05:08:15.252Z,25.53
2023-03-06T05:10:44.162Z,25.27
2023-03-06T05:13:12.849Z,23.13
2023-03-06T05:15:42.005Z,26.27
2023-03-06T05:18:11.969Z,24.60
2023-03-06T05:20:40.603Z,26.50
2023-03-06T05:23:09.300Z,32.80
2023-03-06T05:25:39.581Z,31.40
2023-03-06T05:28:08.702Z,31.07
2023-03-06T05:30:37.754Z,24.93
2023-03-06T05:33:06.379Z,26.70
2023-03-06T05:35:36.397Z,26.93
2023-03-06T05:38:05.085Z,31.87
2023-03-06T05:40:33.707Z,24.53
2023-03-06T05:43:02.345Z,29.63
2023-03-06T05:45:30.948Z,27.90
2023-03-06T05:47:59.580Z,26.07
2023-03-06T05:50:28.576Z,29.00
2023-03-06T05:52:58.513Z,27.53
2023-03-06T05:55:27.221Z,22.93
2023-03-06T05:57:55.902Z,26.93
2023-03-06T06:00:25.306Z,27.30
2023-03-06T06:02:54.330Z,28.53
2023-03-06T06:05:22.928Z,35.63
2023-03-06T06:07:51.595Z,27.00
2023-03-06T06:10:22.712Z,30.17
2023-03-06T06:12:51.368Z,27.37
2023-03-06T06:15:20.367Z,26.30
2023-03-06T06:17:49.033Z,24.97
2023-03-06T06:20:17.872Z,29.40
2023-03-06T06:22:46.470Z,27.87
2023-03-06T06:25:15.512Z,28.90
2023-03-06T06:27:45.435Z,25.67
2023-03-06T06:30:14.835Z,34.47
2023-03-06T06:32:43.616Z,34.57
2023-03-06T06:35:12.489Z,25.07
2023-03-06T06:37:41.160Z,27.70
2023-03-06T06:40:12.203Z,28.57
2023-03-06T06:42:40.775Z,33.80
2023-03-06T06:45:12.138Z,27.20
2023-03-06T06:47:41.604Z,23.43
2023-03-06T06:50:13.335Z,24.23
2023-03-06T06:52:41.951Z,26.47
2023-03-06T06:55:11.483Z,28.47
2023-03-06T06:57:41.125Z,22.13
2023-03-06T07:00:14.499Z,23.00
2023-03-06T07:02:43.166Z,23.20
2023-03-06T07:05:11.990Z,24.37
2023-03-06T07:07:40.662Z,28.33
2023-03-06T07:10:15.433Z,17.80
2023-03-06T07:12:44.247Z,22.00
2023-03-06T07:15:16.078Z,25.83
2023-03-06T07:17:44.720Z,23.77
2023-03-06T07:20:13.352Z,20.93
2023-03-06T07:22:50.915Z,23.80
2023-03-06T07:25:20.746Z,25.77
2023-03-06T07:27:53.898Z,26.40
2023-03-06T07:30:24.751Z,20.40
2023-03-06T07:32:55.023Z,26.67
2023-03-06T07:35:25.090Z,27.37
2023-03-06T07:37:53.972Z,37.67
2023-03-06T07:40:22.824Z,27.00
2023-03-06T07:42:54.280Z,26.83
2023-03-06T07:45:24.772Z,28.83
2023-03-06T07:47:54.152Z,29.87
2023-03-06T07:50:22.880Z,31.07
2023-03-06T07:52:52.014Z,24.80
2023-03-06T07:55:21.070Z,33.83
2023-03-06T07:57:51.327Z,22.33
2023-03-06T08:00:20.740Z,25.67
2023-03-06T08:02:50.724Z,24.37
2023-03-06T08:05:19.619Z,25.60
2023-03-06T08:07:48.239Z,22.17
2023-03-06T08:10:18.172Z,22.90
2023-03-06T08:12:46.910Z,24.00
2023-03-06T08:15:15.671Z,22.93
2023-03-06T08:17:44.592Z,22.80
2023-03-06T08:20:15.400Z,26.23
2023-03-06T08:22:43.998Z,23.77
2023-03-06T08:25:13.361Z,21.57
2023-03-06T08:27:42.120Z,21.20
2023-03-06T08:30:11.803Z,24.83
2023-03-06T08:32:40.494Z,20.97
2023-03-06T08:35:09.812Z,19.50
2023-03-06T08:37:39.835Z,20.63
2023-03-06T08:40:10.101Z,19.83
2023-03-06T08:42:38.764Z,19.00
2023-03-06T08:45:08.827Z,13.67
2023-03-06T08:47:37.434Z,22.97
2023-03-06T08:50:06.618Z,15.70
2023-03-06T08:52:35.268Z,16.10
2023-03-06T08:55:05.970Z,12.83
2023-03-06T08:57:34.648Z,12.57
2023-03-06T09:00:05.927Z,24.20
2023-03-06T09:02:34.666Z,13.40
2023-03-06T09:05:05.872Z,11.03
2023-03-06T09:07:34.811Z,8.33
2023-03-06T09:10:05.339Z,8.27
2023-03-06T09:12:47.381Z,17.63
2023-03-06T09:15:18.322Z,13.13
2023-03-06T09:17:47.322Z,9.47
2023-03-06T09:20:16.460Z,10.20
2023-03-06T09:22:45.600Z,9.50
2023-03-06T09:25:20.164Z,9.40
2023-03-06T09:27:58.365Z,8.57
2023-03-06T09:30:33.976Z,9.07
2023-03-06T09:33:02.657Z,6.30
2023-03-06T09:35:31.264Z,8.07
2023-03-06T09:37:59.893Z,7.33
2023-03-06T09:40:38.471Z,6.10
2023-03-06T09:43:07.145Z,6.77
2023-03-06T09:45:37.569Z,8.37
2023-03-06T09:48:11.988Z,7.07
2023-03-06T09:50:44.514Z,7.40
2023-03-06T09:53:21.837Z,8.90
2023-03-06T09:55:59.117Z,8.30
2023-03-06T09:58:28.800Z,10.10
2023-03-06T10:01:01.552Z,11.57
2023-03-06T10:03:32.732Z,8.70
2023-03-06T10:06:04.220Z,7.27
2023-03-06T10:08:42.313Z,9.37
2023-03-06T10:11:14.372Z,8.70
2023-03-06T10:13:45.256Z,9.20
2023-03-06T10:16:23.132Z,11.23
2023-03-06T10:18:52.012Z,11.80
2023-03-06T10:21:31.370Z,10.00
2023-03-06T10:24:06.277Z,13.93
2023-03-06T10:26:39.273Z,8.20
2023-03-06T10:29:23.336Z,9.53
2023-03-06T10:32:00.171Z,12.03
2023-03-06T10:34:31.061Z,11.90
2023-03-06T10:37:00.193Z,12.47
2023-03-06T10:39:30.666Z,6.43
2023-03-06T10:42:00.846Z,7.97
2023-03-06T10:44:29.584Z,5.50
2023-03-06T10:46:58.216Z,7.70
2023-03-06T10:49:33.720Z,8.43
2023-03-06T10:52:06.707Z,6.13
2023-03-06T10:54:36.621Z,7.97
2023-03-06T10:57:24.984Z,7.97
2023-03-06T10:59:55.380Z,6.87
2023-03-06T11:02:29.489Z,6.90
2023-03-06T11:04:59.495Z,6.17
2023-03-06T11:07:29.295Z,6.13
2023-03-06T11:10:13.666Z,8.87
2023-03-06T11:12:44.477Z,6.97
2023-03-06T11:15:22.431Z,11.80
2023-03-06T11:18:02.872Z,6.37
2023-03-06T11:20:50.024Z,9.47
2023-03-06T11:23:22.327Z,7.50
2023-03-06T11:25:54.778Z,5.20
2023-03-06T11:28:27.584Z,6.87
2023-03-06T11:30:59.956Z,6.03
2023-03-06T11:33:32.199Z,4.70
2023-03-06T11:36:06.298Z,7.40
2023-03-06T11:38:40.709Z,5.43
2023-03-06T11:41:16.303Z,10.03
2023-03-06T11:43:52.438Z,8.23
2023-03-06T11:46:23.811Z,7.73
2023-03-06T11:48:54.968Z,6.00
2023-03-06T11:51:25.862Z,7.37
2023-03-06T11:53:54.944Z,7.17
2023-03-06T11:56:32.790Z,12.93
2023-03-06T11:59:21.642Z,9.43
2023-03-06T12:01:57.605Z,9.00
2023-03-06T12:04:39.177Z,9.50
2023-03-06T12:07:21.506Z,7.90
2023-03-06T12:09:56.112Z,9.73
2023-03-06T12:12:50.750Z,5.97
2023-03-06T12:15:24.780Z,8.47
2023-03-06T12:18:05.053Z,6.73
2023-03-06T12:20:43.871Z,6.00
2023-03-06T12:23:21.032Z,6.67
2023-03-06T12:25:53.457Z,6.83
2023-03-06T12:28:32.970Z,7.20
2023-03-06T12:31:33.174Z,6.00
2023-03-06T12:34:08.762Z,4.80
2023-03-06T12:36:47.721Z,8.17
2023-03-06T12:39:18.970Z,7.00
2023-03-06T12:41:54.252Z,11.80
2023-03-06T12:44:44.093Z,5.67
2023-03-06T12:47:16.741Z,5.83
2023-03-06T12:49:50.845Z,10.83
2023-03-06T12:52:29.708Z,8.27
2023-03-06T12:55:00.163Z,9.87
2023-03-06T12:57:28.995Z,7.20
2023-03-06T12:59:57.657Z,6.97
2023-03-06T13:02:55.279Z,8.50
2023-03-06T13:05:39.473Z,6.90
2023-03-06T13:08:26.625Z,7.00
2023-03-06T13:11:16.161Z,8.70
2023-03-06T13:13:46.260Z,7.40
2023-03-06T13:16:15.741Z,7.20
2023-03-06T13:18:51.519Z,8.70
2023-03-06T13:21:45.544Z,6.40
2023-03-06T13:24:19.113Z,5.67
2023-03-06T13:26:59.454Z,9.03
2023-03-06T13:30:09.658Z,6.03
2023-03-06T13:32:38.365Z,7.20
2023-03-06T13:35:49.462Z,12.93
2023-03-06T13:38:34.445Z,10.90
2023-03-06T13:41:40.317Z,7.57
2023-03-06T13:44:42.392Z,7.10
2023-03-06T13:48:10.946Z,9.27
2023-03-06T13:50:41.313Z,8.40
2023-03-06T13:53:52.655Z,5.93
2023-03-06T13:56:52.593Z,5.73
2023-03-06T14:00:10.295Z,8.10
2023-03-06T14:02:52.613Z,6.43
2023-03-06T14:05:21.361Z,6.83
2023-03-06T14:08:03.679Z,6.97
2023-03-06T14:10:34.655Z,5.83
2023-03-06T14:13:07.052Z,7.83
2023-03-06T14:15:44.482Z,7.93
2023-03-06T14:18:19.968Z,7.93
2023-03-06T14:20:52.736Z,5.30
2023-03-06T14:23:28.038Z,6.23
2023-03-06T14:26:00.904Z,6.07
2023-03-06T14:28:32.286Z,9.80
2023-03-06T14:31:02.251Z,5.17
2023-03-06T14:33:34.275Z,6.70
2023-03-06T14:36:04.606Z,6.47
2023-03-06T14:38:36.662Z,7.43
2023-03-06T14:41:06.247Z,10.10
2023-03-06T14:43:36.282Z,9.60
2023-03-06T14:46:07.840Z,8.60
2023-03-06T14:48:40.130Z,7.43
2023-03-06T14:51:15.436Z,7.60
2023-03-06T14:53:45.510Z,5.70
2023-03-06T14:56:17.781Z,7.03
2023-03-06T14:58:53.016Z,5.47
2023-03-06T15:01:30.510Z,5.73
2023-03-06T15:04:00.888Z,6.40
2023-03-06T15:06:34.460Z,9.83
2023-03-06T15:09:07.936Z,8.43
2023-03-06T15:11:56.956Z,6.40
2023-03-06T15:14:32.913Z,12.77
2023-03-06T15:17:23.818Z,7.20
2023-03-06T15:19:54.454Z,9.73
2023-03-06T15:22:29.166Z,5.90
2023-03-06T15:25:26.664Z,9.67
2023-03-06T15:27:56.759Z,7.50
2023-03-06T15:30:29.531Z,7.20
2023-03-06T15:33:12.174Z,7.03
2023-03-06T15:35:41.034Z,8.60
2023-03-06T15:38:25.385Z,7.30
2023-03-06T15:40:58.610Z,9.47
2023-03-06T15:43:28.633Z,9.80
2023-03-06T15:46:00.447Z,5.97
2023-03-06T15:48:29.366Z,5.77
2023-03-06T15:50:58.075Z,6.30
2023-03-06T15:53:26.786Z,5.57
2023-03-06T15:55:55.661Z,6.00
2023-03-06T15:58:26.810Z,6.73
2023-03-06T16:00:55.472Z,8.13
2023-03-06T16:03:25.589Z,7.90
2023-03-06T16:05:54.256Z,7.40
2023-03-06T16:08:22.925Z,6.53
2023-03-06T16:10:52.430Z,10.67
2023-03-06T16:13:27.225Z,7.47
2023-03-06T16:15:56.066Z,9.60
2023-03-06T16:18:26.055Z,6.93
2023-03-06T16:20:54.705Z,8.40
2023-03-06T16:23:23.416Z,8.93
2023-03-06T16:25:52.140Z,7.67
2023-03-06T16:28:20.930Z,9.60
2023-03-06T16:30:49.554Z,7.20
2023-03-06T16:33:18.372Z,7.70
2023-03-06T16:35:49.862Z,8.27
2023-03-06T16:38:18.579Z,6.87
2023-03-06T16:40:47.187Z,8.20
2023-03-06T16:43:16.481Z,8.57
2023-03-06T16:45:45.229Z,8.13
2023-03-06T16:48:17.890Z,12.57
2023-03-06T16:50:47.970Z,7.50
2023-03-06T16:53:16.636Z,7.73
2023-03-06T16:55:46.389Z,11.40
2023-03-06T16:58:15.248Z,9.87
2023-03-06T17:00:43.886Z,9.50
2023-03-06T17:03:12.598Z,8.23
2023-03-06T17:05:43.685Z,8.30
2023-03-06T17:08:14.071Z,8.70
2023-03-06T17:10:43.177Z,9.10
2023-03-06T17:13:12.412Z,10.60
2023-03-06T17:15:41.060Z,8.17
2023-03-06T17:18:09.671Z,10.00
2023-03-06T17:20:38.517Z,8.57
2023-03-06T17:23:07.172Z,11.80
2023-03-06T17:25:38.398Z,11.87
2023-03-06T17:28:07.049Z,10.50
2023-03-06T17:30:35.678Z,8.77
2023-03-06T17:33:04.518Z,10.43
2023-03-06T17:35:35.362Z,9.32
2023-03-06T17:38:04.450Z,9.73
2023-03-06T17:40:34.774Z,7.53
2023-03-06T17:43:04.767Z,12.00
2023-03-06T17:45:36.768Z,11.00
2023-03-06T17:48:05.778Z,13.10
2023-03-06T17:50:34.387Z,10.67
2023-03-06T17:53:03.033Z,9.30
2023-03-06T17:55:31.852Z,9.53
2023-03-06T17:58:00.651Z,10.03
2023-03-06T18:00:30.715Z,11.50
2023-03-06T18:02:59.319Z,10.23
2023-03-06T18:05:28.025Z,9.77
2023-03-06T18:07:56.694Z,10.73
2023-03-06T18:10:25.571Z,10.63
2023-03-06T18:12:54.290Z,8.80
2023-03-06T18:15:22.960Z,10.37
2023-03-06T18:17:52.954Z,12.63
2023-03-06T18:20:22.197Z,13.53
2023-03-06T18:22:50.849Z,9.50
2023-03-06T18:25:19.805Z,11.80
2023-03-06T18:27:48.733Z,17.03
2023-03-06T18:30:18.061Z,13.63
2023-03-06T18:32:46.714Z,12.10
2023-03-06T18:35:16.822Z,10.87
2023-03-06T18:37:45.490Z,11.53
2023-03-06T18:40:15.159Z,11.20
2023-03-06T18:42:43.836Z,11.33
2023-03-06T18:45:13.245Z,9.95
2023-03-06T18:47:42.217Z,10.60
2023-03-06T18:50:16.412Z,10.37
2023-03-06T18:52:46.538Z,11.67
2023-03-06T18:55:15.377Z,11.47
2023-03-06T18:57:43.986Z,12.87
2023-03-06T19:00:13.621Z,12.30
2023-03-06T19:02:42.292Z,11.37
2023-03-06T19:05:11.125Z,10.70
2023-03-06T19:07:40.360Z,12.00
2023-03-06T19:10:11.996Z,11.13
2023-03-06T19:12:40.653Z,22.13
2023-03-06T19:15:10.252Z,13.07
2023-03-06T19:17:38.938Z,13.93
2023-03-06T19:20:08.582Z,11.60
2023-03-06T19:22:37.355Z,10.17
2023-03-06T19:25:07.798Z,9.50
2023-03-06T19:27:39.409Z,12.67
2023-03-06T19:30:09.611Z,13.27
2023-03-06T19:32:38.332Z,11.70
2023-03-06T19:35:07.788Z,12.70
2023-03-06T19:37:36.427Z,13.17
2023-03-06T19:40:06.264Z,11.90
2023-03-06T19:42:34.932Z,11.00
2023-03-06T19:45:05.554Z,17.77
2023-03-06T19:47:34.216Z,13.57
2023-03-06T19:50:02.892Z,12.10
2023-03-06T19:52:31.667Z,14.07
2023-03-06T19:55:00.461Z,14.43
2023-03-06T19:57:29.365Z,15.03
2023-03-06T19:59:58.760Z,11.37
2023-03-06T20:02:29.199Z,11.27
2023-03-06T20:04:57.908Z,11.47
2023-03-06T20:07:26.632Z,10.50
2023-03-06T20:10:00.221Z,13.93
2023-03-06T20:12:28.959Z,14.00
2023-03-06T20:14:57.622Z,10.30
2023-03-06T20:17:26.344Z,10.73
2023-03-06T20:19:56.652Z,11.60
2023-03-06T20:22:25.474Z,11.17
2023-03-06T20:24:54.364Z,12.80
2023-03-06T20:27:23.098Z,14.13
2023-03-06T20:29:51.940Z,15.10
2023-03-06T20:32:20.967Z,16.60
2023-03-06T20:34:49.924Z,13.53
2023-03-06T20:37:19.953Z,13.70
2023-03-06T20:39:48.684Z,14.03
2023-03-06T20:42:17.702Z,12.77
2023-03-06T20:44:46.402Z,12.53
2023-03-06T20:47:15.411Z,16.10
2023-03-06T20:49:44.019Z,13.10
2023-03-06T20:52:12.772Z,13.13
2023-03-06T20:54:42.784Z,12.27
2023-03-06T20:57:11.447Z,16.10
2023-03-06T20:59:40.221Z,9.93
2023-03-06T21:02:10.650Z,12.60
2023-03-06T21:04:41.029Z,10.80
2023-03-06T21:07:09.837Z,12.07
2023-03-06T21:09:39.634Z,11.50
2023-03-06T21:12:09.658Z,12.77
2023-03-06T21:14:38.390Z,10.63
2023-03-06T21:17:07.080Z,13.30
2023-03-06T21:19:37.019Z,11.43
2023-03-06T21:22:05.612Z,16.10
2023-03-06T21:24:34.248Z,14.37
2023-03-06T21:27:03.601Z,17.10
2023-03-06T21:29:33.575Z,12.47
2023-03-06T21:32:02.206Z,10.50
2023-03-06T21:34:30.918Z,11.77
2023-03-06T21:36:59.547Z,12.87
2023-03-06T21:39:28.300Z,12.03
2023-03-06T21:41:56.960Z,15.93
2023-03-06T21:44:25.659Z,11.80
2023-03-06T21:46:56.040Z,12.63
2023-03-06T21:49:26.261Z,11.37
2023-03-06T21:51:54.917Z,10.87
2023-03-06T21:54:23.533Z,12.00
2023-03-06T21:56:52.391Z,12.37
2023-03-06T21:59:21.006Z,10.50
2023-03-06T22:01:49.696Z,12.57
2023-03-06T22:04:19.871Z,11.50
2023-03-06T22:06:48.590Z,12.03
2023-03-06T22:09:19.040Z,12.57
2023-03-06T22:11:47.911Z,15.33
2023-03-06T22:14:16.872Z,16.90
2023-03-06T22:16:45.534Z,13.70
2023-03-06T22:19:14.284Z,16.03
2023-03-06T22:21:44.334Z,12.03
2023-03-06T22:24:12.924Z,14.53
2023-03-06T22:26:41.578Z,12.77
2023-03-06T22:29:10.335Z,15.10
2023-03-06T22:31:40.381Z,14.67
2023-03-06T22:34:09.231Z,13.80
2023-03-06T22:36:37.843Z,18.50
2023-03-06T22:39:07.823Z,18.23
2023-03-06T22:41:36.378Z,15.90
2023-03-06T22:44:05.402Z,13.67
2023-03-06T22:46:34.334Z,15.60
2023-03-06T22:49:03.324Z,15.77
2023-03-06T22:51:31.965Z,13.80
2023-03-06T22:54:00.571Z,11.57
2023-03-06T22:56:30.623Z,15.83
2023-03-06T22:59:00.000Z,16.67
2023-03-06T23:01:30.126Z,10.30
2023-03-06T23:04:00.164Z,13.10
2023-03-06T23:06:30.783Z,15.00
2023-03-06T23:09:01.534Z,12.53
2023-03-06T23:11:31.755Z,13.90
2023-03-06T23:14:00.722Z,13.47
2023-03-06T23:16:29.384Z,11.67
2023-03-06T23:18:58.418Z,12.90
2023-03-06T23:21:27.098Z,18.27
2023-03-06T23:23:56.680Z,12.03
2023-03-06T23:26:27.236Z,10.87
2023-03-06T23:28:58.212Z,15.53
2023-03-06T23:31:29.053Z,12.97
2023-03-06T23:33:58.665Z,11.57
2023-03-06T23:36:28.160Z,13.70
2023-03-06T23:38:57.318Z,10.90
2023-03-06T23:41:26.202Z,12.37
2023-03-06T23:43:55.422Z,14.70
2023-03-06T23:46:25.520Z,12.40
2023-03-06T23:48:54.454Z,11.57
2023-03-06T23:51:23.578Z,12.80
2023-03-06T23:53:56.512Z,10.80
2023-03-06T23:56:25.635Z,10.30
2023-03-06T23:58:54.578Z,15.00
